createdAt,value
2023-01-04T00:00:53.926Z,2.17
2023-01-04T00:03:33.326Z,2.10
2023-01-04T00:06:07.944Z,2.07
2023-01-04T00:08:41.752Z,2.05
2023-01-04T00:11:18.080Z,2.05
2023-01-04T00:13:52.601Z,2.07
2023-01-04T00:16:27.085Z,2.09
2023-01-04T00:19:01.833Z,2.10
2023-01-04T00:21:34.406Z,2.12
2023-01-04T00:24:09.140Z,2.13
2023-01-04T00:26:41.625Z,2.15
2023-01-04T00:29:15.467Z,2.19
2023-01-04T00:31:48.250Z,2.23
2023-01-04T00:34:21.691Z,2.27
2023-01-04T00:36:54.240Z,2.29
2023-01-04T00:39:27.012Z,2.30
2023-01-04T00:42:05.551Z,2.30
2023-01-04T00:44:39.141Z,2.28
2023-01-04T00:47:11.947Z,2.23
2023-01-04T00:49:44.443Z,2.17
2023-01-04T00:52:16.919Z,2.10
2023-01-04T00:54:49.377Z,2.04
2023-01-04T00:57:21.901Z,2.01
2023-01-04T00:59:54.382Z,1.99
2023-01-04T01:02:27.094Z,1.98
2023-01-04T01:05:00.168Z,1.98
2023-01-04T01:07:32.730Z,1.97
2023-01-04T01:10:06.085Z,1.97
2023-01-04T01:12:38.703Z,2.00
2023-01-04T01:15:13.265Z,2.00
2023-01-04T01:17:45.718Z,1.94
2023-01-04T01:20:18.307Z,1.86
2023-01-04T01:22:50.722Z,1.77
2023-01-04T01:25:23.277Z,1.67
2023-01-04T01:27:55.826Z,1.58
2023-01-04T01:30:28.296Z,1.51
2023-01-04T01:33:00.923Z,1.49
2023-01-04T01:35:35.739Z,1.50
2023-01-04T01:38:08.235Z,1.51
2023-01-04T01:40:45.685Z,1.51
2023-01-04T01:43:22.700Z,1.49
2023-01-04T01:45:58.792Z,1.44
2023-01-04T01:48:32.323Z,1.37
2023-01-04T01:51:06.014Z,1.26
2023-01-04T01:53:42.765Z,1.15
2023-01-04T01:56:17.593Z,1.05
2023-01-04T01:58:55.691Z,0.99
2023-01-04T02:01:28.828Z,0.94
2023-01-04T02:04:01.903Z,0.92
2023-01-04T02:06:39.546Z,0.92
2023-01-04T02:09:14.020Z,0.92
2023-01-04T02:11:46.534Z,0.89
2023-01-04T02:14:30.365Z,0.82
2023-01-04T02:17:12.176Z,0.73
2023-01-04T02:20:20.022Z,0.62
2023-01-04T02:23:24.304Z,0.48
2023-01-04T02:26:34.691Z,0.35
2023-01-04T02:29:34.076Z,0.26
2023-01-04T02:32:13.621Z,0.21
2023-01-04T02:34:58.603Z,0.16
2023-01-04T02:37:41.678Z,0.13
2023-01-04T02:40:22.345Z,0.09
2023-01-04T02:43:17.901Z,0.04
2023-01-04T02:45:57.302Z,-0.05
2023-01-04T02:48:55.495Z,-0.14
2023-01-04T02:51:28.638Z,-0.26
2023-01-04T02:54:04.628Z,-0.35
2023-01-04T02:57:04.926Z,-0.40
2023-01-04T03:00:11.060Z,-0.41
2023-01-04T03:03:16.474Z,-0.38
2023-01-04T03:06:15.128Z,-0.33
2023-01-04T03:08:56.722Z,-0.27
2023-01-04T03:11:55.928Z,-0.23
2023-01-04T03:14:35.166Z,-0.24
2023-01-04T03:17:13.235Z,-0.30
2023-01-04T03:19:59.375Z,-0.39
2023-01-04T03:22:56.025Z,-0.47
2023-01-04T03:25:50.048Z,-0.52
2023-01-04T03:28:43.443Z,-0.56
2023-01-04T03:31:39.814Z,-0.53
2023-01-04T03:34:30.027Z,-0.47
2023-01-04T03:37:16.179Z,-0.44
2023-01-04T03:40:19.966Z,-0.47
2023-01-04T03:43:24.100Z,-0.51
2023-01-04T03:46:17.322Z,-0.58
2023-01-04T03:48:56.969Z,-0.68
2023-01-04T03:51:35.958Z,-0.77
2023-01-04T03:54:13.319Z,-0.84
2023-01-04T03:56:48.100Z,-0.88
2023-01-04T03:59:22.839Z,-0.90
2023-01-04T04:01:59.293Z,-0.91
2023-01-04T04:04:49.388Z,-0.90
2023-01-04T04:07:39.299Z,-0.93
2023-01-04T04:10:12.622Z,-0.97
2023-01-04T04:12:45.431Z,-1.02
2023-01-04T04:15:18.344Z,-1.08
2023-01-04T04:17:51.163Z,-1.14
2023-01-04T04:20:23.771Z,-1.20
2023-01-04T04:22:56.730Z,-1.23
2023-01-04T04:25:29.471Z,-1.23
2023-01-04T04:28:01.992Z,-1.21
2023-01-04T04:30:34.816Z,-1.18
2023-01-04T04:33:07.416Z,-1.16
2023-01-04T04:35:41.954Z,-1.14
2023-01-04T04:38:14.516Z,-1.13
2023-01-04T04:41:04.910Z,-1.13
2023-01-04T04:43:37.809Z,-1.17
2023-01-04T04:46:10.787Z,-1.23
2023-01-04T04:48:43.774Z,-1.26
2023-01-04T04:51:16.456Z,-1.27
2023-01-04T04:53:49.154Z,-1.24
2023-01-04T04:56:22.463Z,-1.22
2023-01-04T04:58:55.915Z,-1.20
2023-01-04T05:01:28.665Z,-1.18
2023-01-04T05:04:01.593Z,-1.20
2023-01-04T05:06:34.132Z,-1.24
2023-01-04T05:09:06.833Z,-1.28
2023-01-04T05:11:57.342Z,-1.33
2023-01-04T05:14:30.205Z,-1.39
2023-01-04T05:17:02.970Z,-1.40
2023-01-04T05:19:37.139Z,-1.38
2023-01-04T05:22:09.943Z,-1.34
2023-01-04T05:24:42.593Z,-1.28
2023-01-04T05:27:15.139Z,-1.22
2023-01-04T05:30:05.749Z,-1.18
2023-01-04T05:32:38.533Z,-1.18
2023-01-04T05:35:12.256Z,-1.21
2023-01-04T05:37:44.954Z,-1.25
2023-01-04T05:40:18.255Z,-1.28
2023-01-04T05:42:52.502Z,-1.30
2023-01-04T05:45:25.454Z,-1.29
2023-01-04T05:47:58.339Z,-1.25
2023-01-04T05:50:30.902Z,-1.20
2023-01-04T05:53:11.572Z,-1.13
2023-01-04T05:55:44.492Z,-1.10
2023-01-04T05:58:17.485Z,-1.11
2023-01-04T06:00:50.106Z,-1.11
2023-01-04T06:03:22.933Z,-1.12
2023-01-04T06:05:56.876Z,-1.14
2023-01-04T06:08:29.876Z,-1.17
2023-01-04T06:11:02.338Z,-1.16
2023-01-04T06:13:34.907Z,-1.15
2023-01-04T06:16:08.251Z,-1.12
2023-01-04T06:18:42.486Z,-1.09
2023-01-04T06:21:16.032Z,-1.05
2023-01-04T06:23:48.942Z,-1.05
2023-01-04T06:26:22.189Z,-1.05
2023-01-04T06:28:55.172Z,-1.06
2023-01-04T06:31:29.149Z,-1.10
2023-01-04T06:34:02.624Z,-1.16
2023-01-04T06:36:36.073Z,-1.20
2023-01-04T06:39:09.529Z,-1.20
2023-01-04T06:41:42.217Z,-1.17
2023-01-04T06:44:16.907Z,-1.11
2023-01-04T06:46:49.583Z,-1.04
2023-01-04T06:49:22.235Z,-0.95
2023-01-04T06:51:54.940Z,-0.88
2023-01-04T06:54:28.391Z,-0.83
2023-01-04T06:57:03.478Z,-0.82
2023-01-04T06:59:36.133Z,-0.81
2023-01-04T07:02:08.954Z,-0.77
2023-01-04T07:04:41.670Z,-0.71
2023-01-04T07:07:14.906Z,-0.63
2023-01-04T07:09:50.188Z,-0.52
2023-01-04T07:12:22.801Z,-0.42
2023-01-04T07:14:55.451Z,-0.31
2023-01-04T07:17:30.106Z,-0.16
2023-01-04T07:20:03.949Z,-0.02
2023-01-04T07:22:36.829Z,0.04
2023-01-04T07:25:10.509Z,0.07
2023-01-04T07:27:43.112Z,0.08
2023-01-04T07:30:17.180Z,0.13
2023-01-04T07:32:50.303Z,0.19
2023-01-04T07:35:23.551Z,0.27
2023-01-04T07:37:59.147Z,0.37
2023-01-04T07:40:31.904Z,0.48
2023-01-04T07:43:04.518Z,0.57
2023-01-04T07:45:41.280Z,0.66
2023-01-04T07:48:14.970Z,0.74
2023-01-04T07:50:47.602Z,0.82
2023-01-04T07:53:20.120Z,0.87
2023-01-04T07:55:58.234Z,0.91
2023-01-04T07:58:35.076Z,0.94
2023-01-04T08:01:12.443Z,1.01
2023-01-04T08:03:46.448Z,1.10
2023-01-04T08:06:21.353Z,1.25
2023-01-04T08:08:55.463Z,1.38
2023-01-04T08:11:28.379Z,1.50
2023-01-04T08:14:01.438Z,1.61
2023-01-04T08:16:36.077Z,1.66
2023-01-04T08:19:13.519Z,1.68
2023-01-04T08:21:46.733Z,1.69
2023-01-04T08:24:21.036Z,1.68
2023-01-04T08:26:53.534Z,1.69
2023-01-04T08:29:31.136Z,1.70
2023-01-04T08:32:08.035Z,1.77
2023-01-04T08:34:40.544Z,1.85
2023-01-04T08:37:13.385Z,1.96
2023-01-04T08:39:49.212Z,2.07
2023-01-04T08:42:30.611Z,2.14
2023-01-04T08:45:03.938Z,2.21
2023-01-04T08:47:36.613Z,2.26
2023-01-04T08:50:11.102Z,2.31
2023-01-04T08:52:44.567Z,2.33
2023-01-04T08:55:23.323Z,2.36
2023-01-04T08:57:56.540Z,2.39
2023-01-04T09:00:29.189Z,2.46
2023-01-04T09:03:01.946Z,2.52
2023-01-04T09:05:36.295Z,2.60
2023-01-04T09:08:09.720Z,2.65
2023-01-04T09:10:42.746Z,2.75
2023-01-04T09:13:15.252Z,2.85
2023-01-04T09:15:47.997Z,2.95
2023-01-04T09:18:31.962Z,3.05
2023-01-04T09:21:08.938Z,3.13
2023-01-04T09:23:42.531Z,3.16
2023-01-04T09:26:17.687Z,3.21
2023-01-04T09:28:50.522Z,3.28
2023-01-04T09:31:25.280Z,3.35
2023-01-04T09:34:17.708Z,3.43
2023-01-04T09:36:52.345Z,3.52
2023-01-04T09:39:26.623Z,3.61
2023-01-04T09:42:04.281Z,3.68
2023-01-04T09:47:42.601Z,3.81
2023-01-04T09:50:19.804Z,3.85
2023-01-04T09:53:03.195Z,3.90
2023-01-04T09:55:41.677Z,3.96
2023-01-04T09:58:25.106Z,4.07
2023-01-04T10:01:05.154Z,4.21
2023-01-04T10:03:40.094Z,4.35
2023-01-04T10:06:17.908Z,4.49
2023-01-04T10:08:50.645Z,4.61
2023-01-04T10:11:56.637Z,4.76
2023-01-04T10:14:48.142Z,4.87
2023-01-04T10:18:39.483Z,4.97
2023-01-04T10:21:32.965Z,5.07
2023-01-04T10:24:32.727Z,5.14
2023-01-04T10:27:13.019Z,5.21
2023-01-04T10:29:55.622Z,5.25
2023-01-04T10:32:39.564Z,5.34
2023-01-04T10:35:22.779Z,5.45
2023-01-04T10:37:59.430Z,5.60
2023-01-04T10:40:37.297Z,5.75
2023-01-04T10:43:22.433Z,5.88
2023-01-04T10:46:03.584Z,5.98
2023-01-04T10:48:45.015Z,6.07
2023-01-04T10:51:23.013Z,6.10
2023-01-04T10:54:00.901Z,6.15
2023-01-04T10:56:38.437Z,6.20
2023-01-04T10:59:16.735Z,6.24
2023-01-04T11:01:50.733Z,6.27
2023-01-04T11:04:28.698Z,6.29
2023-01-04T11:07:06.940Z,6.32
2023-01-04T11:09:41.205Z,6.37
2023-01-04T11:12:18.252Z,6.39
2023-01-04T11:14:52.134Z,6.45
2023-01-04T11:17:26.030Z,6.54
2023-01-04T11:19:58.921Z,6.63
2023-01-04T11:22:37.785Z,6.73
2023-01-04T11:25:36.296Z,6.81
2023-01-04T11:28:17.291Z,6.87
2023-01-04T11:30:56.440Z,6.91
2023-01-04T11:33:29.217Z,6.97
2023-01-04T11:36:02.848Z,6.98
2023-01-04T11:38:36.578Z,6.96
2023-01-04T11:41:17.081Z,6.97
2023-01-04T11:44:00.881Z,6.98
2023-01-04T11:46:35.121Z,7.02
2023-01-04T11:49:20.371Z,7.06
2023-01-04T11:51:53.039Z,7.11
2023-01-04T11:54:26.019Z,7.14
2023-01-04T12:00:15.802Z,7.19
2023-01-04T12:03:01.392Z,7.25
2023-01-04T12:05:35.261Z,7.30
2023-01-04T12:08:08.589Z,7.36
2023-01-04T12:10:41.271Z,7.41
2023-01-04T12:13:13.903Z,7.45
2023-01-04T12:15:57.700Z,7.51
2023-01-04T12:18:36.315Z,7.58
2023-01-04T12:21:15.615Z,7.65
2023-01-04T12:23:50.394Z,7.72
2023-01-04T12:26:24.587Z,7.77
2023-01-04T12:29:34.190Z,7.81
2023-01-04T12:32:43.675Z,7.86
2023-01-04T12:36:04.146Z,7.91
2023-01-04T12:39:13.665Z,7.92
2023-01-04T12:42:21.362Z,7.89
2023-01-04T12:45:25.714Z,7.88
2023-01-04T12:48:15.865Z,7.86
2023-01-04T12:51:42.687Z,7.82
2023-01-04T12:54:32.324Z,7.81
2023-01-04T12:57:30.645Z,7.78
2023-01-04T13:00:07.480Z,7.73
2023-01-04T13:02:46.757Z,7.70
2023-01-04T13:08:33.545Z,7.58
2023-01-04T13:11:09.422Z,7.55
2023-01-04T13:13:52.751Z,7.53
2023-01-04T13:16:32.938Z,7.54
2023-01-04T13:19:13.133Z,7.57
2023-01-04T13:21:47.686Z,7.61
2023-01-04T13:24:25.559Z,7.64
2023-01-04T13:26:58.645Z,7.66
2023-01-04T13:29:33.888Z,7.64
2023-01-04T13:32:12.233Z,7.60
2023-01-04T13:34:52.655Z,7.55
2023-01-04T13:37:30.702Z,7.47
2023-01-04T13:40:26.010Z,7.39
2023-01-04T13:43:18.212Z,7.30
2023-01-04T13:46:06.606Z,7.22
2023-01-04T13:48:42.137Z,7.12
2023-01-04T13:51:26.098Z,7.02
2023-01-04T13:54:02.494Z,6.93
2023-01-04T13:56:36.736Z,6.84
2023-01-04T13:59:12.068Z,6.78
2023-01-04T14:01:49.139Z,6.76
2023-01-04T14:04:27.875Z,6.75
2023-01-04T14:07:03.986Z,6.74
2023-01-04T14:09:46.275Z,6.73
2023-01-04T14:12:21.167Z,6.68
2023-01-04T14:14:58.819Z,6.62
2023-01-04T14:17:48.832Z,6.54
2023-01-04T14:20:36.249Z,6.45
2023-01-04T14:23:26.984Z,6.37
2023-01-04T14:25:59.519Z,6.29
2023-01-04T14:28:49.339Z,6.23
2023-01-04T14:31:38.620Z,6.15
2023-01-04T14:34:18.496Z,6.09
2023-01-04T14:36:51.256Z,6.04
2023-01-04T14:39:32.886Z,6.01
2023-01-04T14:42:06.246Z,6.01
2023-01-04T14:44:41.322Z,6.02
2023-01-04T14:47:14.806Z,6.03
2023-01-04T14:49:49.849Z,6.03
2023-01-04T14:52:25.880Z,6.02
2023-01-04T14:54:59.448Z,6.00
2023-01-04T14:57:31.954Z,5.96
2023-01-04T15:00:05.454Z,5.92
2023-01-04T15:02:39.162Z,5.86
2023-01-04T15:05:13.380Z,5.80
2023-01-04T15:07:45.892Z,5.74
2023-01-04T15:10:23.852Z,5.70
2023-01-04T15:12:57.768Z,5.67
2023-01-04T15:15:30.444Z,5.66
2023-01-04T15:18:04.888Z,5.63
2023-01-04T15:20:40.320Z,5.62
2023-01-04T15:23:13.224Z,5.59
2023-01-04T15:25:47.191Z,5.55
2023-01-04T15:28:21.792Z,5.50
2023-01-04T15:30:54.789Z,5.46
2023-01-04T15:33:32.280Z,5.43
2023-01-04T15:36:07.393Z,5.41
2023-01-04T15:38:40.221Z,5.42
2023-01-04T15:41:36.779Z,5.43
2023-01-04T15:44:12.095Z,5.48
2023-01-04T15:46:46.770Z,5.52
2023-01-04T15:49:20.162Z,5.56
2023-01-04T15:51:52.730Z,5.57
2023-01-04T15:54:27.638Z,5.58
2023-01-04T15:57:00.495Z,5.58
2023-01-04T15:59:34.313Z,5.57
2023-01-04T16:02:07.206Z,5.56
2023-01-04T16:04:40.666Z,5.56
2023-01-04T16:07:13.182Z,5.58
2023-01-04T16:09:45.728Z,5.62
2023-01-04T16:12:36.387Z,5.67
2023-01-04T16:15:10.922Z,5.75
2023-01-04T16:17:44.114Z,5.80
2023-01-04T16:20:19.381Z,5.82
2023-01-04T16:22:52.025Z,5.82
2023-01-04T16:25:24.970Z,5.80
2023-01-04T16:27:57.580Z,5.77
2023-01-04T16:30:36.245Z,5.73
2023-01-04T16:33:11.394Z,5.68
2023-01-04T16:35:44.340Z,5.65
2023-01-04T16:38:17.078Z,5.63
2023-01-04T16:41:01.025Z,5.64
2023-01-04T16:43:34.249Z,5.66
2023-01-04T16:46:25.892Z,5.70
2023-01-04T16:49:01.300Z,5.77
2023-01-04T16:51:35.953Z,5.82
2023-01-04T16:54:11.819Z,5.88
2023-01-04T16:56:45.890Z,5.95
2023-01-04T16:59:20.486Z,5.99
2023-01-04T17:01:57.913Z,6.02
2023-01-04T17:04:31.098Z,6.03
2023-01-04T17:07:03.632Z,6.02
2023-01-04T17:09:36.672Z,6.01
2023-01-04T17:12:45.439Z,5.98
2023-01-04T17:17:55.859Z,5.94
2023-01-04T17:20:29.247Z,5.97
2023-01-04T17:23:01.918Z,6.01
2023-01-04T17:25:34.774Z,6.06
2023-01-04T17:28:07.623Z,6.12
2023-01-04T17:30:43.053Z,6.20
2023-01-04T17:33:15.937Z,6.24
2023-01-04T17:35:49.067Z,6.27
2023-01-04T17:38:21.557Z,6.28
2023-01-04T17:40:55.443Z,6.28
2023-01-04T17:43:28.144Z,6.28
2023-01-04T17:46:06.193Z,6.27
2023-01-04T17:48:39.302Z,6.25
2023-01-04T17:51:14.867Z,6.25
2023-01-04T17:53:48.343Z,6.26
2023-01-04T17:56:24.713Z,6.28
2023-01-04T17:58:57.757Z,6.31
2023-01-04T18:01:31.626Z,6.35
2023-01-04T18:04:05.040Z,6.39
2023-01-04T18:06:39.459Z,6.43
2023-01-04T18:09:15.511Z,6.44
2023-01-04T18:11:51.124Z,6.45
2023-01-04T18:14:23.660Z,6.45
2023-01-04T18:16:59.442Z,6.45
2023-01-04T18:19:33.044Z,6.43
2023-01-04T18:22:07.442Z,6.40
2023-01-04T18:24:40.068Z,6.37
2023-01-04T18:27:23.579Z,6.36
2023-01-04T18:29:57.988Z,6.34
2023-01-04T18:32:30.595Z,6.33
2023-01-04T18:35:05.514Z,6.35
2023-01-04T18:37:38.628Z,6.35
2023-01-04T18:40:13.258Z,6.36
2023-01-04T18:42:49.038Z,6.35
2023-01-04T18:45:21.988Z,6.32
2023-01-04T18:47:54.920Z,6.28
2023-01-04T18:50:27.446Z,6.25
2023-01-04T18:52:59.959Z,6.20
2023-01-04T18:55:32.635Z,6.18
2023-01-04T18:58:05.168Z,6.16
2023-01-04T19:00:37.718Z,6.17
2023-01-04T19:03:16.469Z,6.17
2023-01-04T19:05:53.890Z,6.19
2023-01-04T19:08:27.552Z,6.19
2023-01-04T19:11:00.145Z,6.20
2023-01-04T19:13:33.489Z,6.20
2023-01-04T19:16:08.549Z,6.20
2023-01-04T19:18:41.698Z,6.20
2023-01-04T19:21:14.697Z,6.19
2023-01-04T19:23:48.078Z,6.16
2023-01-04T19:26:20.625Z,6.13
2023-01-04T19:28:56.207Z,6.09
2023-01-04T19:31:28.761Z,6.04
2023-01-04T19:34:01.796Z,6.01
2023-01-04T19:36:34.650Z,6.01
2023-01-04T19:39:09.411Z,6.02
2023-01-04T19:41:42.150Z,6.05
2023-01-04T19:44:16.277Z,6.07
2023-01-04T19:46:48.887Z,6.09
2023-01-04T19:49:21.417Z,6.11
2023-01-04T19:51:54.015Z,6.12
2023-01-04T19:54:26.656Z,6.13
2023-01-04T19:56:59.602Z,6.11
2023-01-04T19:59:32.154Z,6.08
2023-01-04T20:02:04.800Z,6.05
2023-01-04T20:04:37.449Z,6.01
2023-01-04T20:07:10.252Z,6.00
2023-01-04T20:09:43.123Z,6.01
2023-01-04T20:12:16.458Z,6.04
2023-01-04T20:14:49.064Z,6.08
2023-01-04T20:17:21.636Z,6.11
2023-01-04T20:19:54.219Z,6.14
2023-01-04T20:22:26.826Z,6.14
2023-01-04T20:24:59.398Z,6.13
2023-01-04T20:27:31.949Z,6.11
2023-01-04T20:30:04.715Z,6.08
2023-01-04T20:32:39.434Z,6.06
2023-01-04T20:35:13.331Z,6.06
2023-01-04T20:37:45.840Z,6.07
2023-01-04T20:40:18.750Z,6.10
2023-01-04T20:43:09.014Z,6.13
2023-01-04T20:45:46.243Z,6.14
2023-01-04T20:48:19.011Z,6.17
2023-01-04T20:50:51.636Z,6.22
2023-01-04T20:53:25.415Z,6.24
2023-01-04T20:55:57.911Z,6.27
2023-01-04T20:58:30.400Z,6.29
2023-01-04T21:01:05.691Z,6.29
2023-01-04T21:03:38.738Z,6.26
2023-01-04T21:06:14.081Z,6.24
2023-01-04T21:08:46.907Z,6.22
2023-01-04T21:11:19.922Z,6.22
2023-01-04T21:13:53.296Z,6.25
2023-01-04T21:16:25.807Z,6.28
2023-01-04T21:19:00.561Z,6.33
2023-01-04T21:21:33.048Z,6.37
2023-01-04T21:24:06.075Z,6.40
2023-01-04T21:26:38.572Z,6.42
2023-01-04T21:29:12.468Z,6.41
2023-01-04T21:31:45.542Z,6.39
2023-01-04T21:34:22.701Z,6.37
2023-01-04T21:36:55.659Z,6.36
2023-01-04T21:39:28.170Z,6.36
2023-01-04T21:42:02.356Z,6.38
2023-01-04T21:44:34.909Z,6.42
2023-01-04T21:47:07.501Z,6.46
2023-01-04T21:49:43.934Z,6.49
2023-01-04T21:52:16.696Z,6.51
2023-01-04T21:54:52.287Z,6.48
2023-01-04T21:57:24.717Z,6.46
2023-01-04T21:59:57.290Z,6.41
2023-01-04T22:02:30.051Z,6.34
2023-01-04T22:05:03.064Z,6.27
2023-01-04T22:07:36.494Z,6.23
2023-01-04T22:10:09.885Z,6.18
2023-01-04T22:12:42.404Z,6.15
2023-01-04T22:15:15.309Z,6.13
2023-01-04T22:17:48.039Z,6.13
2023-01-04T22:20:21.818Z,6.14
2023-01-04T22:22:54.376Z,6.15
2023-01-04T22:25:26.961Z,6.16
2023-01-04T22:27:59.612Z,6.17
2023-01-04T22:30:32.320Z,6.18
2023-01-04T22:33:05.513Z,6.18
2023-01-04T22:35:41.333Z,6.20
2023-01-04T22:38:13.806Z,6.22
2023-01-04T22:40:46.376Z,6.25
2023-01-04T22:43:18.869Z,6.29
2023-01-04T22:45:52.648Z,6.32
2023-01-04T22:48:25.155Z,6.35
2023-01-04T22:50:57.708Z,6.36
2023-01-04T22:53:30.181Z,6.34
2023-01-04T22:56:22.511Z,6.31
2023-01-04T22:58:57.762Z,6.30
2023-01-04T23:01:32.832Z,6.33
2023-01-04T23:04:06.139Z,6.37
2023-01-04T23:06:39.642Z,6.43
2023-01-04T23:09:15.989Z,6.48
2023-01-04T23:11:48.607Z,6.53
2023-01-04T23:14:21.085Z,6.57
2023-01-04T23:16:53.635Z,6.58
2023-01-04T23:19:28.644Z,6.56
2023-01-04T23:22:01.302Z,6.53
2023-01-04T23:24:34.982Z,6.48
2023-01-04T23:27:07.498Z,6.47
2023-01-04T23:29:40.083Z,6.48
2023-01-04T23:32:14.209Z,6.48
2023-01-04T23:34:47.269Z,6.47
2023-01-04T23:37:19.794Z,6.47
2023-01-04T23:39:53.531Z,6.48
2023-01-04T23:42:26.044Z,6.49
2023-01-04T23:45:01.233Z,6.48
2023-01-04T23:47:33.765Z,6.47
2023-01-04T23:50:06.758Z,6.44
2023-01-04T23:52:39.611Z,6.42
2023-01-04T23:55:12.913Z,6.41
2023-01-04T23:57:46.378Z,6.40
